sensor_id;sensor_type;location;lat;lon;timestamp;temperature;humidity
2389;DHT22;1205;47.984;7.668;2022-08-11T00:00:07;23.20;58.80
2389;DHT22;1205;47.984;7.668;2022-08-11T00:02:47;23.20;58.90
2389;DHT22;1205;47.984;7.668;2022-08-11T00:05:17;23.20;59.00
2389;DHT22;1205;47.984;7.668;2022-08-11T00:10:13;23.20;59.00
2389;DHT22;1205;47.984;7.668;2022-08-11T00:12:40;23.20;58.90
2389;DHT22;1205;47.984;7.668;2022-08-11T00:15:07;23.10;59.10
2389;DHT22;1205;47.984;7.668;2022-08-11T00:17:33;23.10;59.00
2389;DHT22;1205;47.984;7.668;2022-08-11T00:20:03;23.00;59.10
2389;DHT22;1205;47.984;7.668;2022-08-11T00:22:31;23.00;59.20
2389;DHT22;1205;47.984;7.668;2022-08-11T00:24:57;22.90;59.20
2389;DHT22;1205;47.984;7.668;2022-08-11T00:27:35;22.90;59.50
2389;DHT22;1205;47.984;7.668;2022-08-11T00:30:02;22.90;59.60
2389;DHT22;1205;47.984;7.668;2022-08-11T00:32:29;22.90;59.40
2389;DHT22;1205;47.984;7.668;2022-08-11T00:34:55;22.80;59.40
2389;DHT22;1205;47.984;7.668;2022-08-11T00:37:22;22.80;59.60
2389;DHT22;1205;47.984;7.668;2022-08-11T00:39:51;22.80;59.70
2389;DHT22;1205;47.984;7.668;2022-08-11T00:42:57;22.70;59.70
2389;DHT22;1205;47.984;7.668;2022-08-11T00:45:36;22.70;59.80
2389;DHT22;1205;47.984;7.668;2022-08-11T00:48:35;22.70;59.80
2389;DHT22;1205;47.984;7.668;2022-08-11T00:51:34;22.70;59.90
2389;DHT22;1205;47.984;7.668;2022-08-11T00:54:07;22.70;60.00
2389;DHT22;1205;47.984;7.668;2022-08-11T00:59:25;22.70;59.90
2389;DHT22;1205;47.984;7.668;2022-08-11T01:02:11;22.60;60.00
2389;DHT22;1205;47.984;7.668;2022-08-11T01:04:55;22.60;60.10
2389;DHT22;1205;47.984;7.668;2022-08-11T01:16:10;22.40;60.80
2389;DHT22;1205;47.984;7.668;2022-08-11T01:35:34;22.40;60.40
2389;DHT22;1205;47.984;7.668;2022-08-11T01:46:32;22.40;60.70
2389;DHT22;1205;47.984;7.668;2022-08-11T01:52:18;22.30;60.90
2389;DHT22;1205;47.984;7.668;2022-08-11T02:00:50;22.20;61.20
2389;DHT22;1205;47.984;7.668;2022-08-11T02:03:28;22.20;61.10
2389;DHT22;1205;47.984;7.668;2022-08-11T02:09:12;22.20;61.40
2389;DHT22;1205;47.984;7.668;2022-08-11T02:11:44;22.10;61.50
2389;DHT22;1205;47.984;7.668;2022-08-11T02:14:38;22.10;61.40
2389;DHT22;1205;47.984;7.668;2022-08-11T02:17:12;22.10;61.60
2389;DHT22;1205;47.984;7.668;2022-08-11T02:25:42;22.00;61.70
2389;DHT22;1205;47.984;7.668;2022-08-11T02:34:37;22.00;61.90
2389;DHT22;1205;47.984;7.668;2022-08-11T02:37:19;22.00;62.00
2389;DHT22;1205;47.984;7.668;2022-08-11T02:48:22;21.90;62.10
2389;DHT22;1205;47.984;7.668;2022-08-11T02:51:26;21.90;62.30
2389;DHT22;1205;47.984;7.668;2022-08-11T02:54:12;21.90;62.40
2389;DHT22;1205;47.984;7.668;2022-08-11T02:56:57;21.90;62.50
2389;DHT22;1205;47.984;7.668;2022-08-11T02:59:59;21.80;62.60
2389;DHT22;1205;47.984;7.668;2022-08-11T03:22:59;21.60;63.70
2389;DHT22;1205;47.984;7.668;2022-08-11T03:25:37;21.60;63.70
2389;DHT22;1205;47.984;7.668;2022-08-11T03:30:47;21.50;63.90
2389;DHT22;1205;47.984;7.668;2022-08-11T03:33:25;21.40;63.90
2389;DHT22;1205;47.984;7.668;2022-08-11T03:44:27;21.40;64.10
2389;DHT22;1205;47.984;7.668;2022-08-11T03:47:24;21.40;64.20
2389;DHT22;1205;47.984;7.668;2022-08-11T03:52:50;21.40;64.20
2389;DHT22;1205;47.984;7.668;2022-08-11T04:00:49;21.30;64.60
2389;DHT22;1205;47.984;7.668;2022-08-11T04:03:42;21.30;64.60
2389;DHT22;1205;47.984;7.668;2022-08-11T04:15:36;21.20;64.80
2389;DHT22;1205;47.984;7.668;2022-08-11T04:38:24;21.00;65.60
2389;DHT22;1205;47.984;7.668;2022-08-11T04:49:30;20.70;70.80
2389;DHT22;1205;47.984;7.668;2022-08-11T04:55:34;20.20;72.90
2389;DHT22;1205;47.984;7.668;2022-08-11T05:13:32;19.50;76.90
2389;DHT22;1205;47.984;7.668;2022-08-11T05:16:41;19.50;77.20
2389;DHT22;1205;47.984;7.668;2022-08-11T05:19:26;19.90;76.20
2389;DHT22;1205;47.984;7.668;2022-08-11T05:22:12;20.10;75.70
2389;DHT22;1205;47.984;7.668;2022-08-11T05:25:11;20.50;74.80
2389;DHT22;1205;47.984;7.668;2022-08-11T05:28:04;21.00;73.60
2389;DHT22;1205;47.984;7.668;2022-08-11T05:31:03;21.30;72.80
2389;DHT22;1205;47.984;7.668;2022-08-11T05:34:06;21.70;72.30
2389;DHT22;1205;47.984;7.668;2022-08-11T05:36:55;21.90;71.50
2389;DHT22;1205;47.984;7.668;2022-08-11T05:39:24;22.20;71.00
2389;DHT22;1205;47.984;7.668;2022-08-11T05:42:10;22.30;70.80
2389;DHT22;1205;47.984;7.668;2022-08-11T05:45:00;22.50;70.60
2389;DHT22;1205;47.984;7.668;2022-08-11T05:47:50;22.80;70.10
2389;DHT22;1205;47.984;7.668;2022-08-11T05:50:35;23.10;69.10
2389;DHT22;1205;47.984;7.668;2022-08-11T05:53:19;23.40;68.40
2389;DHT22;1205;47.984;7.668;2022-08-11T05:56:05;23.50;68.20
2389;DHT22;1205;47.984;7.668;2022-08-11T05:58:49;23.70;67.90
2389;DHT22;1205;47.984;7.668;2022-08-11T06:01:23;23.60;67.80
2389;DHT22;1205;47.984;7.668;2022-08-11T06:03:51;23.70;67.30
2389;DHT22;1205;47.984;7.668;2022-08-11T06:06:37;24.20;67.10
2389;DHT22;1205;47.984;7.668;2022-08-11T06:09:07;24.40;66.50
2389;DHT22;1205;47.984;7.668;2022-08-11T06:11:38;24.70;66.40
2389;DHT22;1205;47.984;7.668;2022-08-11T06:14:06;24.80;66.10
2389;DHT22;1205;47.984;7.668;2022-08-11T06:16:33;25.20;65.60
2389;DHT22;1205;47.984;7.668;2022-08-11T06:18:59;25.40;64.80
2389;DHT22;1205;47.984;7.668;2022-08-11T06:21:25;25.60;64.80
2389;DHT22;1205;47.984;7.668;2022-08-11T06:23:52;25.80;64.60
2389;DHT22;1205;47.984;7.668;2022-08-11T06:26:18;26.10;64.20
2389;DHT22;1205;47.984;7.668;2022-08-11T06:28:45;26.30;63.70
2389;DHT22;1205;47.984;7.668;2022-08-11T06:31:20;26.40;63.30
2389;DHT22;1205;47.984;7.668;2022-08-11T06:36:56;26.80;63.20
2389;DHT22;1205;47.984;7.668;2022-08-11T06:39:42;26.90;63.20
2389;DHT22;1205;47.984;7.668;2022-08-11T06:42:14;27.10;62.30
2389;DHT22;1205;47.984;7.668;2022-08-11T06:44:43;27.20;62.30
2389;DHT22;1205;47.984;7.668;2022-08-11T06:47:12;26.80;62.70
2389;DHT22;1205;47.984;7.668;2022-08-11T06:49:44;26.80;62.40
2389;DHT22;1205;47.984;7.668;2022-08-11T06:52:34;25.90;63.80
2389;DHT22;1205;47.984;7.668;2022-08-11T06:55:09;26.00;64.20
2389;DHT22;1205;47.984;7.668;2022-08-11T06:57:38;25.90;64.20
2389;DHT22;1205;47.984;7.668;2022-08-11T07:00:24;26.80;63.50
2389;DHT22;1205;47.984;7.668;2022-08-11T07:14:54;27.80;59.60
2389;DHT22;1205;47.984;7.668;2022-08-11T07:17:48;28.40;59.80
2389;DHT22;1205;47.984;7.668;2022-08-11T07:20:35;27.40;59.70
2389;DHT22;1205;47.984;7.668;2022-08-11T07:23:21;27.50;60.60
2389;DHT22;1205;47.984;7.668;2022-08-11T07:26:08;27.30;59.70
2389;DHT22;1205;47.984;7.668;2022-08-11T07:28:54;27.90;59.90
2389;DHT22;1205;47.984;7.668;2022-08-11T07:36:53;28.40;58.70
2389;DHT22;1205;47.984;7.668;2022-08-11T07:39:24;28.70;58.10
2389;DHT22;1205;47.984;7.668;2022-08-11T07:41:52;28.50;58.40
2389;DHT22;1205;47.984;7.668;2022-08-11T07:44:19;28.90;58.20
2389;DHT22;1205;47.984;7.668;2022-08-11T07:46:47;29.40;58.80
2389;DHT22;1205;47.984;7.668;2022-08-11T07:49:37;30.00;57.70
2389;DHT22;1205;47.984;7.668;2022-08-11T07:52:24;29.60;57.80
2389;DHT22;1205;47.984;7.668;2022-08-11T07:55:04;28.90;58.60
2389;DHT22;1205;47.984;7.668;2022-08-11T07:57:32;29.50;58.90
2389;DHT22;1205;47.984;7.668;2022-08-11T08:00:17;29.40;58.30
2389;DHT22;1205;47.984;7.668;2022-08-11T08:03:03;29.20;58.20
2389;DHT22;1205;47.984;7.668;2022-08-11T08:05:49;29.40;58.60
2389;DHT22;1205;47.984;7.668;2022-08-11T08:08:34;29.60;58.50
2389;DHT22;1205;47.984;7.668;2022-08-11T08:11:20;29.10;59.20
2389;DHT22;1205;47.984;7.668;2022-08-11T08:14:06;29.20;58.30
2389;DHT22;1205;47.984;7.668;2022-08-11T08:16:51;29.80;57.70
2389;DHT22;1205;47.984;7.668;2022-08-11T08:19:36;29.60;57.60
2389;DHT22;1205;47.984;7.668;2022-08-11T08:22:02;29.40;58.80
2389;DHT22;1205;47.984;7.668;2022-08-11T08:24:28;29.60;58.20
2389;DHT22;1205;47.984;7.668;2022-08-11T08:26:54;29.80;58.10
2389;DHT22;1205;47.984;7.668;2022-08-11T08:29:28;29.70;58.30
2389;DHT22;1205;47.984;7.668;2022-08-11T08:32:12;29.60;56.90
2389;DHT22;1205;47.984;7.668;2022-08-11T08:34:40;29.40;57.40
2389;DHT22;1205;47.984;7.668;2022-08-11T08:37:06;29.70;56.90
2389;DHT22;1205;47.984;7.668;2022-08-11T08:39:32;29.70;58.00
2389;DHT22;1205;47.984;7.668;2022-08-11T08:42:03;28.40;59.70
2389;DHT22;1205;47.984;7.668;2022-08-11T08:44:34;28.40;60.30
2389;DHT22;1205;47.984;7.668;2022-08-11T08:47:02;28.10;61.00
2389;DHT22;1205;47.984;7.668;2022-08-11T08:49:32;28.50;60.50
2389;DHT22;1205;47.984;7.668;2022-08-11T08:52:02;28.70;60.90
2389;DHT22;1205;47.984;7.668;2022-08-11T08:54:35;28.30;60.70
2389;DHT22;1205;47.984;7.668;2022-08-11T08:57:05;28.50;60.20
2389;DHT22;1205;47.984;7.668;2022-08-11T08:59:41;28.60;60.20
2389;DHT22;1205;47.984;7.668;2022-08-11T09:02:09;29.10;59.70
2389;DHT22;1205;47.984;7.668;2022-08-11T09:04:39;28.40;60.10
2389;DHT22;1205;47.984;7.668;2022-08-11T09:07:09;28.40;59.70
2389;DHT22;1205;47.984;7.668;2022-08-11T09:09:46;28.30;59.50
2389;DHT22;1205;47.984;7.668;2022-08-11T09:12:12;28.10;60.30
2389;DHT22;1205;47.984;7.668;2022-08-11T09:14:40;28.30;60.60
2389;DHT22;1205;47.984;7.668;2022-08-11T09:17:26;28.60;60.20
2389;DHT22;1205;47.984;7.668;2022-08-11T09:20:04;28.30;59.80
2389;DHT22;1205;47.984;7.668;2022-08-11T09:22:33;28.50;60.60
2389;DHT22;1205;47.984;7.668;2022-08-11T09:25:20;28.50;60.00
2389;DHT22;1205;47.984;7.668;2022-08-11T09:28:09;28.60;59.30
2389;DHT22;1205;47.984;7.668;2022-08-11T09:30:36;28.50;59.70
2389;DHT22;1205;47.984;7.668;2022-08-11T09:33:04;28.60;60.50
2389;DHT22;1205;47.984;7.668;2022-08-11T09:35:33;28.30;59.20
2389;DHT22;1205;47.984;7.668;2022-08-11T09:38:03;28.10;59.00
2389;DHT22;1205;47.984;7.668;2022-08-11T09:40:48;28.10;58.80
2389;DHT22;1205;47.984;7.668;2022-08-11T09:43:18;28.30;59.80
2389;DHT22;1205;47.984;7.668;2022-08-11T09:46:03;28.40;58.80
2389;DHT22;1205;47.984;7.668;2022-08-11T09:48:39;28.30;59.10
2389;DHT22;1205;47.984;7.668;2022-08-11T09:51:07;28.20;58.70
2389;DHT22;1205;47.984;7.668;2022-08-11T09:53:36;28.20;57.40
2389;DHT22;1205;47.984;7.668;2022-08-11T09:56:04;28.40;58.00
2389;DHT22;1205;47.984;7.668;2022-08-11T09:58:50;28.30;58.80
2389;DHT22;1205;47.984;7.668;2022-08-11T10:01:19;28.40;56.00
2389;DHT22;1205;47.984;7.668;2022-08-11T10:03:57;28.40;56.90
2389;DHT22;1205;47.984;7.668;2022-08-11T10:06:26;28.20;58.00
2389;DHT22;1205;47.984;7.668;2022-08-11T10:09:13;28.30;56.10
2389;DHT22;1205;47.984;7.668;2022-08-11T10:11:41;28.30;55.10
2389;DHT22;1205;47.984;7.668;2022-08-11T10:14:08;28.10;54.30
2389;DHT22;1205;47.984;7.668;2022-08-11T10:16:53;28.10;54.70
2389;DHT22;1205;47.984;7.668;2022-08-11T10:19:20;28.20;54.80
2389;DHT22;1205;47.984;7.668;2022-08-11T10:21:53;28.20;54.80
2389;DHT22;1205;47.984;7.668;2022-08-11T10:24:40;28.30;54.60
2389;DHT22;1205;47.984;7.668;2022-08-11T10:27:26;28.50;54.60
2389;DHT22;1205;47.984;7.668;2022-08-11T10:29:52;28.40;54.40
2389;DHT22;1205;47.984;7.668;2022-08-11T10:32:36;28.40;54.40
2389;DHT22;1205;47.984;7.668;2022-08-11T10:35:22;28.50;54.50
2389;DHT22;1205;47.984;7.668;2022-08-11T10:37:52;28.50;54.20
2389;DHT22;1205;47.984;7.668;2022-08-11T10:40:20;28.60;54.20
2389;DHT22;1205;47.984;7.668;2022-08-11T10:42:55;28.70;54.30
2389;DHT22;1205;47.984;7.668;2022-08-11T10:45:37;28.70;53.70
2389;DHT22;1205;47.984;7.668;2022-08-11T10:48:27;28.70;54.00
2389;DHT22;1205;47.984;7.668;2022-08-11T10:50:54;28.70;54.10
2389;DHT22;1205;47.984;7.668;2022-08-11T10:53:44;28.70;53.20
2389;DHT22;1205;47.984;7.668;2022-08-11T10:56:34;28.70;53.60
2389;DHT22;1205;47.984;7.668;2022-08-11T10:59:19;28.80;53.00
2389;DHT22;1205;47.984;7.668;2022-08-11T11:01:46;28.80;52.80
2389;DHT22;1205;47.984;7.668;2022-08-11T11:04:40;28.90;52.60
2389;DHT22;1205;47.984;7.668;2022-08-11T11:07:23;28.90;52.30
2389;DHT22;1205;47.984;7.668;2022-08-11T11:10:03;28.70;52.50
2389;DHT22;1205;47.984;7.668;2022-08-11T11:12:36;28.80;53.30
2389;DHT22;1205;47.984;7.668;2022-08-11T11:15:22;28.80;52.70
2389;DHT22;1205;47.984;7.668;2022-08-11T11:18:18;28.80;52.50
2389;DHT22;1205;47.984;7.668;2022-08-11T11:23:26;29.00;52.80
2389;DHT22;1205;47.984;7.668;2022-08-11T11:26:07;28.90;52.30
2389;DHT22;1205;47.984;7.668;2022-08-11T11:31:50;29.00;52.30
2389;DHT22;1205;47.984;7.668;2022-08-11T11:37:10;29.10;52.20
2389;DHT22;1205;47.984;7.668;2022-08-11T11:39:38;29.20;51.60
2389;DHT22;1205;47.984;7.668;2022-08-11T11:42:08;29.20;51.80
2389;DHT22;1205;47.984;7.668;2022-08-11T11:44:37;29.10;51.60
2389;DHT22;1205;47.984;7.668;2022-08-11T11:47:03;29.10;52.00
2389;DHT22;1205;47.984;7.668;2022-08-11T11:49:30;29.30;52.30
2389;DHT22;1205;47.984;7.668;2022-08-11T11:51:58;29.30;52.00
2389;DHT22;1205;47.984;7.668;2022-08-11T11:54:30;29.30;51.70
2389;DHT22;1205;47.984;7.668;2022-08-11T11:56:57;29.30;52.10
2389;DHT22;1205;47.984;7.668;2022-08-11T11:59:43;29.40;52.00
2389;DHT22;1205;47.984;7.668;2022-08-11T12:02:28;29.60;51.50
2389;DHT22;1205;47.984;7.668;2022-08-11T12:04:54;29.60;51.20
2389;DHT22;1205;47.984;7.668;2022-08-11T12:07:20;29.60;51.00
2389;DHT22;1205;47.984;7.668;2022-08-11T12:10:05;29.60;52.50
2389;DHT22;1205;47.984;7.668;2022-08-11T12:12:32;29.60;52.50
2389;DHT22;1205;47.984;7.668;2022-08-11T12:15:16;29.60;51.80
2389;DHT22;1205;47.984;7.668;2022-08-11T12:17:44;29.70;52.30
2389;DHT22;1205;47.984;7.668;2022-08-11T12:20:11;29.70;50.90
2389;DHT22;1205;47.984;7.668;2022-08-11T12:22:40;29.70;50.80
2389;DHT22;1205;47.984;7.668;2022-08-11T12:25:25;29.70;52.40
2389;DHT22;1205;47.984;7.668;2022-08-11T12:28:09;29.80;52.40
2389;DHT22;1205;47.984;7.668;2022-08-11T12:30:35;29.80;51.00
2389;DHT22;1205;47.984;7.668;2022-08-11T12:33:01;29.80;51.20
2389;DHT22;1205;47.984;7.668;2022-08-11T12:35:28;29.90;52.50
2389;DHT22;1205;47.984;7.668;2022-08-11T12:37:54;29.90;52.70
2389;DHT22;1205;47.984;7.668;2022-08-11T12:40:26;30.00;54.00
2389;DHT22;1205;47.984;7.668;2022-08-11T12:43:14;30.10;55.00
2389;DHT22;1205;47.984;7.668;2022-08-11T12:46:23;30.20;54.30
2389;DHT22;1205;47.984;7.668;2022-08-11T12:48:55;30.20;53.00
2389;DHT22;1205;47.984;7.668;2022-08-11T12:51:50;30.30;52.80
2389;DHT22;1205;47.984;7.668;2022-08-11T12:57:38;30.40;53.10
2389;DHT22;1205;47.984;7.668;2022-08-11T13:00:23;30.40;51.80
2389;DHT22;1205;47.984;7.668;2022-08-11T13:03:10;30.40;51.90
2389;DHT22;1205;47.984;7.668;2022-08-11T13:05:57;30.40;51.30
2389;DHT22;1205;47.984;7.668;2022-08-11T13:08:26;30.40;51.40
2389;DHT22;1205;47.984;7.668;2022-08-11T13:10:55;30.40;51.60
2389;DHT22;1205;47.984;7.668;2022-08-11T13:13:41;30.50;51.60
2389;DHT22;1205;47.984;7.668;2022-08-11T13:16:09;30.50;51.00
2389;DHT22;1205;47.984;7.668;2022-08-11T13:18:36;30.50;50.40
2389;DHT22;1205;47.984;7.668;2022-08-11T13:21:04;30.50;50.00
2389;DHT22;1205;47.984;7.668;2022-08-11T13:23:30;30.60;50.50
2389;DHT22;1205;47.984;7.668;2022-08-11T13:25:56;30.50;49.90
2389;DHT22;1205;47.984;7.668;2022-08-11T13:28:22;30.50;49.60
2389;DHT22;1205;47.984;7.668;2022-08-11T13:30:49;30.60;50.60
2389;DHT22;1205;47.984;7.668;2022-08-11T13:33:54;30.70;51.40
2389;DHT22;1205;47.984;7.668;2022-08-11T13:36:21;30.80;52.00
2389;DHT22;1205;47.984;7.668;2022-08-11T13:38:52;30.90;53.30
2389;DHT22;1205;47.984;7.668;2022-08-11T13:41:19;31.00;50.10
2389;DHT22;1205;47.984;7.668;2022-08-11T13:44:05;30.90;49.70
2389;DHT22;1205;47.984;7.668;2022-08-11T13:46:32;30.80;49.60
2389;DHT22;1205;47.984;7.668;2022-08-11T13:48:58;30.90;51.10
2389;DHT22;1205;47.984;7.668;2022-08-11T13:51:25;31.00;51.20
2389;DHT22;1205;47.984;7.668;2022-08-11T13:54:10;31.00;49.50
2389;DHT22;1205;47.984;7.668;2022-08-11T13:56:41;31.00;49.80
2389;DHT22;1205;47.984;7.668;2022-08-11T13:59:08;31.10;49.20
2389;DHT22;1205;47.984;7.668;2022-08-11T14:01:40;31.10;49.60
2389;DHT22;1205;47.984;7.668;2022-08-11T14:04:11;31.10;50.40
2389;DHT22;1205;47.984;7.668;2022-08-11T14:06:45;31.10;48.80
2389;DHT22;1205;47.984;7.668;2022-08-11T14:09:15;31.20;50.50
2389;DHT22;1205;47.984;7.668;2022-08-11T14:11:45;31.20;51.00
2389;DHT22;1205;47.984;7.668;2022-08-11T14:14:33;31.20;48.40
2389;DHT22;1205;47.984;7.668;2022-08-11T14:17:04;31.20;48.50
2389;DHT22;1205;47.984;7.668;2022-08-11T14:19:35;31.20;48.20
2389;DHT22;1205;47.984;7.668;2022-08-11T14:22:04;31.20;49.10
2389;DHT22;1205;47.984;7.668;2022-08-11T14:24:39;31.20;48.50
2389;DHT22;1205;47.984;7.668;2022-08-11T14:27:09;31.30;49.40
2389;DHT22;1205;47.984;7.668;2022-08-11T14:29:37;31.30;48.60
2389;DHT22;1205;47.984;7.668;2022-08-11T14:32:07;31.40;48.30
2389;DHT22;1205;47.984;7.668;2022-08-11T14:34:35;31.20;48.10
2389;DHT22;1205;47.984;7.668;2022-08-11T14:37:04;31.40;48.50
2389;DHT22;1205;47.984;7.668;2022-08-11T14:39:33;31.40;48.10
2389;DHT22;1205;47.984;7.668;2022-08-11T14:42:04;31.30;48.00
2389;DHT22;1205;47.984;7.668;2022-08-11T14:44:53;31.30;48.30
2389;DHT22;1205;47.984;7.668;2022-08-11T14:47:39;31.30;47.80
2389;DHT22;1205;47.984;7.668;2022-08-11T14:50:09;31.40;47.70
2389;DHT22;1205;47.984;7.668;2022-08-11T14:52:37;31.30;47.30
2389;DHT22;1205;47.984;7.668;2022-08-11T14:55:03;31.30;47.30
2389;DHT22;1205;47.984;7.668;2022-08-11T14:57:49;31.20;47.40
2389;DHT22;1205;47.984;7.668;2022-08-11T15:00:16;31.40;48.20
2389;DHT22;1205;47.984;7.668;2022-08-11T15:02:44;31.40;47.50
2389;DHT22;1205;47.984;7.668;2022-08-11T15:05:29;31.40;47.30
2389;DHT22;1205;47.984;7.668;2022-08-11T15:07:56;31.40;47.20
2389;DHT22;1205;47.984;7.668;2022-08-11T15:10:23;31.50;48.10
2389;DHT22;1205;47.984;7.668;2022-08-11T15:12:48;31.50;47.50
2389;DHT22;1205;47.984;7.668;2022-08-11T15:15:16;31.60;47.20
2389;DHT22;1205;47.984;7.668;2022-08-11T15:18:05;31.70;47.50
2389;DHT22;1205;47.984;7.668;2022-08-11T15:20:31;31.60;47.50
2389;DHT22;1205;47.984;7.668;2022-08-11T15:23:15;31.50;47.30
2389;DHT22;1205;47.984;7.668;2022-08-11T15:26:03;31.70;47.60
2389;DHT22;1205;47.984;7.668;2022-08-11T15:28:33;31.60;46.70
2389;DHT22;1205;47.984;7.668;2022-08-11T15:31:22;31.60;47.30
2389;DHT22;1205;47.984;7.668;2022-08-11T15:33:54;31.60;46.70
2389;DHT22;1205;47.984;7.668;2022-08-11T15:36:41;31.60;46.00
2389;DHT22;1205;47.984;7.668;2022-08-11T15:42:16;31.50;46.20
2389;DHT22;1205;47.984;7.668;2022-08-11T15:45:03;31.50;46.30
2389;DHT22;1205;47.984;7.668;2022-08-11T15:47:56;31.60;46.00
2389;DHT22;1205;47.984;7.668;2022-08-11T15:50:26;31.60;46.50
2389;DHT22;1205;47.984;7.668;2022-08-11T15:53:10;31.60;45.80
2389;DHT22;1205;47.984;7.668;2022-08-11T15:55:38;31.60;45.90
2389;DHT22;1205;47.984;7.668;2022-08-11T15:58:07;31.70;46.00
2389;DHT22;1205;47.984;7.668;2022-08-11T16:00:54;31.70;46.60
2389;DHT22;1205;47.984;7.668;2022-08-11T16:03:49;31.80;46.40
2389;DHT22;1205;47.984;7.668;2022-08-11T16:06:35;31.70;46.40
2389;DHT22;1205;47.984;7.668;2022-08-11T16:09:03;31.70;45.80
2389;DHT22;1205;47.984;7.668;2022-08-11T16:11:32;31.70;45.70
2389;DHT22;1205;47.984;7.668;2022-08-11T16:14:03;31.70;45.70
2389;DHT22;1205;47.984;7.668;2022-08-11T16:16:49;31.70;46.20
2389;DHT22;1205;47.984;7.668;2022-08-11T16:19:18;31.70;45.90
2389;DHT22;1205;47.984;7.668;2022-08-11T16:21:44;31.80;46.20
2389;DHT22;1205;47.984;7.668;2022-08-11T16:24:15;31.80;46.30
2389;DHT22;1205;47.984;7.668;2022-08-11T16:26:42;31.70;46.00
2389;DHT22;1205;47.984;7.668;2022-08-11T16:29:09;31.70;46.00
2389;DHT22;1205;47.984;7.668;2022-08-11T16:31:37;31.80;46.40
2389;DHT22;1205;47.984;7.668;2022-08-11T16:34:04;31.70;46.20
2389;DHT22;1205;47.984;7.668;2022-08-11T16:36:53;31.80;46.90
2389;DHT22;1205;47.984;7.668;2022-08-11T16:39:37;31.80;46.40
2389;DHT22;1205;47.984;7.668;2022-08-11T16:42:04;31.80;46.20
2389;DHT22;1205;47.984;7.668;2022-08-11T16:44:49;31.80;46.30
2389;DHT22;1205;47.984;7.668;2022-08-11T16:47:34;31.90;46.90
2389;DHT22;1205;47.984;7.668;2022-08-11T16:50:00;31.90;47.60
2389;DHT22;1205;47.984;7.668;2022-08-11T16:52:26;31.80;47.10
2389;DHT22;1205;47.984;7.668;2022-08-11T16:54:52;31.60;46.80
2389;DHT22;1205;47.984;7.668;2022-08-11T16:57:23;31.60;47.30
2389;DHT22;1205;47.984;7.668;2022-08-11T17:00:09;31.50;46.90
2389;DHT22;1205;47.984;7.668;2022-08-11T17:02:45;31.40;47.20
2389;DHT22;1205;47.984;7.668;2022-08-11T17:05:32;31.30;47.10
2389;DHT22;1205;47.984;7.668;2022-08-11T17:08:20;31.40;47.50
2389;DHT22;1205;47.984;7.668;2022-08-11T17:11:07;31.40;47.50
2389;DHT22;1205;47.984;7.668;2022-08-11T17:13:58;31.40;47.50
2389;DHT22;1205;47.984;7.668;2022-08-11T17:16:33;31.40;47.90
2389;DHT22;1205;47.984;7.668;2022-08-11T17:19:10;31.40;47.50
2389;DHT22;1205;47.984;7.668;2022-08-11T17:21:44;31.30;47.20
2389;DHT22;1205;47.984;7.668;2022-08-11T17:24:32;31.30;47.30
2389;DHT22;1205;47.984;7.668;2022-08-11T17:26:59;31.20;47.60
2389;DHT22;1205;47.984;7.668;2022-08-11T17:29:43;31.20;47.20
2389;DHT22;1205;47.984;7.668;2022-08-11T17:32:14;31.20;47.40
2389;DHT22;1205;47.984;7.668;2022-08-11T17:35:03;31.10;47.80
2389;DHT22;1205;47.984;7.668;2022-08-11T17:37:49;31.20;47.60
2389;DHT22;1205;47.984;7.668;2022-08-11T17:40:21;31.10;47.60
2389;DHT22;1205;47.984;7.668;2022-08-11T17:42:53;31.10;48.30
2389;DHT22;1205;47.984;7.668;2022-08-11T17:45:41;31.20;47.90
2389;DHT22;1205;47.984;7.668;2022-08-11T17:48:37;31.10;47.80
2389;DHT22;1205;47.984;7.668;2022-08-11T17:51:06;30.90;47.90
2389;DHT22;1205;47.984;7.668;2022-08-11T17:53:50;30.90;48.10
2389;DHT22;1205;47.984;7.668;2022-08-11T17:56:34;30.80;47.90
2389;DHT22;1205;47.984;7.668;2022-08-11T17:59:19;30.80;48.30
2389;DHT22;1205;47.984;7.668;2022-08-11T18:02:04;30.70;49.10
2389;DHT22;1205;47.984;7.668;2022-08-11T18:04:51;30.70;48.50
2389;DHT22;1205;47.984;7.668;2022-08-11T18:07:19;30.50;48.40
2389;DHT22;1205;47.984;7.668;2022-08-11T18:10:05;30.40;48.60
2389;DHT22;1205;47.984;7.668;2022-08-11T18:12:51;30.40;48.60
2389;DHT22;1205;47.984;7.668;2022-08-11T18:15:42;30.30;48.70
2389;DHT22;1205;47.984;7.668;2022-08-11T18:18:27;30.20;48.80
2389;DHT22;1205;47.984;7.668;2022-08-11T18:21:14;30.20;48.90
2389;DHT22;1205;47.984;7.668;2022-08-11T18:24:04;30.10;49.10
2389;DHT22;1205;47.984;7.668;2022-08-11T18:26:50;30.00;49.20
2389;DHT22;1205;47.984;7.668;2022-08-11T18:29:39;29.80;49.30
2389;DHT22;1205;47.984;7.668;2022-08-11T18:32:26;29.80;49.30
2389;DHT22;1205;47.984;7.668;2022-08-11T18:35:11;29.50;49.30
2389;DHT22;1205;47.984;7.668;2022-08-11T18:37:57;29.50;49.80
2389;DHT22;1205;47.984;7.668;2022-08-11T18:40:43;29.20;49.90
2389;DHT22;1205;47.984;7.668;2022-08-11T18:43:31;29.10;49.70
2389;DHT22;1205;47.984;7.668;2022-08-11T18:46:18;29.00;50.00
2389;DHT22;1205;47.984;7.668;2022-08-11T18:49:13;28.90;50.40
2389;DHT22;1205;47.984;7.668;2022-08-11T18:51:59;28.70;50.40
2389;DHT22;1205;47.984;7.668;2022-08-11T18:54:46;28.60;50.70
2389;DHT22;1205;47.984;7.668;2022-08-11T18:57:35;28.60;50.70
2389;DHT22;1205;47.984;7.668;2022-08-11T19:00:22;28.40;50.80
2389;DHT22;1205;47.984;7.668;2022-08-11T19:03:10;28.30;51.00
2389;DHT22;1205;47.984;7.668;2022-08-11T19:05:57;28.20;51.20
2389;DHT22;1205;47.984;7.668;2022-08-11T19:08:51;28.10;51.50
2389;DHT22;1205;47.984;7.668;2022-08-11T19:11:37;28.00;51.60
2389;DHT22;1205;47.984;7.668;2022-08-11T19:14:23;27.90;51.50
2389;DHT22;1205;47.984;7.668;2022-08-11T19:17:08;27.90;51.90
2389;DHT22;1205;47.984;7.668;2022-08-11T19:19:54;27.80;52.00
2389;DHT22;1205;47.984;7.668;2022-08-11T19:22:39;27.70;51.80
2389;DHT22;1205;47.984;7.668;2022-08-11T19:25:26;27.70;52.00
2389;DHT22;1205;47.984;7.668;2022-08-11T19:28:12;27.60;52.20
2389;DHT22;1205;47.984;7.668;2022-08-11T19:30:57;27.50;52.60
2389;DHT22;1205;47.984;7.668;2022-08-11T19:33:43;27.50;52.70
2389;DHT22;1205;47.984;7.668;2022-08-11T19:36:29;27.40;52.50
2389;DHT22;1205;47.984;7.668;2022-08-11T19:39:14;27.30;52.70
2389;DHT22;1205;47.984;7.668;2022-08-11T19:41:59;27.20;52.80
2389;DHT22;1205;47.984;7.668;2022-08-11T19:44:45;27.20;52.90
2389;DHT22;1205;47.984;7.668;2022-08-11T19:47:31;27.20;52.90
2389;DHT22;1205;47.984;7.668;2022-08-11T19:50:17;27.20;53.10
2389;DHT22;1205;47.984;7.668;2022-08-11T19:53:03;27.00;53.20
2389;DHT22;1205;47.984;7.668;2022-08-11T19:55:49;26.90;53.30
2389;DHT22;1205;47.984;7.668;2022-08-11T19:58:35;26.90;53.30
2389;DHT22;1205;47.984;7.668;2022-08-11T20:01:20;26.90;53.70
2389;DHT22;1205;47.984;7.668;2022-08-11T20:04:04;26.80;53.60
2389;DHT22;1205;47.984;7.668;2022-08-11T20:06:50;26.80;53.50
2389;DHT22;1205;47.984;7.668;2022-08-11T20:09:36;26.80;53.60
2389;DHT22;1205;47.984;7.668;2022-08-11T20:12:22;26.80;53.60
2389;DHT22;1205;47.984;7.668;2022-08-11T20:15:08;26.70;53.90
2389;DHT22;1205;47.984;7.668;2022-08-11T20:17:53;26.70;53.70
2389;DHT22;1205;47.984;7.668;2022-08-11T20:20:39;26.70;53.60
2389;DHT22;1205;47.984;7.668;2022-08-11T20:23:23;26.70;53.70
2389;DHT22;1205;47.984;7.668;2022-08-11T20:26:08;26.60;53.90
2389;DHT22;1205;47.984;7.668;2022-08-11T20:28:53;26.60;53.90
2389;DHT22;1205;47.984;7.668;2022-08-11T20:31:37;26.50;53.90
2389;DHT22;1205;47.984;7.668;2022-08-11T20:34:23;26.60;53.90